Saint Charles, MO

9:55 AM CDT on October 01, 2014 (GMT -0500)
Spirit Of Saint Louis | Change Station
CLOSE
Current Station
Airport
Location: Spirit of St Louis,
Elevation: 463 ft
Nearby Weather Stations

Elev 463 ft 38.66 °N, 90.66 °W | Updated 1 hour ago

Clear
Clear
67 °F
Feels Like 67 °F
N
5
Wind Variable Wind from ESE

Today
High -- | Low -- °F
--% Chance of Precip.
Yesterday
High -- | Low -- °F
Precip. -- in
6:57 AM 6:44 PM
Waxing Crescent, 48% visible
Pressure 29.90 in
Visibility 10.0 miles
Clouds Clear
Dew Point 59 °F
Humidity 76%
Rainfall 0.01 in
Snow Depth Not available.
UV 2 out of 12
Pollen 5.50 out of 12
Air Quality Not available.
Flu Activity Not available.
METAR KSUS 011354Z 12004KT 10SM CLR 19/15 A2990 RMK AO2 SLPNO T01940150

More Conditions Fewer Conditions

Pressure 29.90 in
Visibility 10.0 miles
Clouds Clear
Dew Point 59 °F
Humidity 76%
Rainfall 0.01 in
Snow Depth Not available.
UV 2 out of 12
Pollen 5.50 out of 12
Air Quality Not available.
Flu Activity Not available.
METAR KSUS 011354Z 12004KT 10SM CLR 19/15 A2990 RMK AO2 SLPNO T01940150

More Conditions Fewer Conditions

10-Day Weather Forecast

Almanac

Astronomy

Oct. 01, 2014 Rise Set
Actual Time 6:57 AM CDT 6:44 PM CDT
Civil Twilight 6:31 AM CDT 7:11 PM CDT
Nautical Twilight 6:00 AM CDT 7:41 PM CDT
Astronomical Twilight 5:29 AM CDT 8:13 PM CDT
Moon 1:56 PM CDT No Moon Set
Length of Visible Light 12h 39m
Length of Day
11h 46m
Tomorrow will be 2m 29s shorter.
Waxing Crescent, 48% of the Moon is Illuminated
Today
Waxing Crescent
Oct 1
First Quarter
Oct 8
Full
Oct 15
Last Quarter
Oct 23
New

Today's Extremes

State Highs State Lows

Community

WunderPhotos

Upload Photos

1,757,960 photos uploaded!

Nearby

Snow Depth

Station Depth Elevation
No new snow has been reported.

Earthquake Activity

City Distance Mag. Time & Date
No recent earthquake activity has been reported nearby.
Minimum magnitude displayed is 2.5.

Coastal Water Temperatures

Place Temperature
No Stations Reporting

Nearby Weather Stations